Time;durP1;ratioP1;P1;durP2;ratioP2;P2;SDS_P1;SDS_P2;PMS_P1;PMS_P2;Temp;Humidity;BMP_temperature;BMP_pressure;BME280_temperature;BME280_humidity;BME280_pressure;Samples;Min_cycle;Max_cycle;Signal;HPM_P1;HPM_P2
2021/07/09 00:02:04;;;;;;;6.57;6.07;;;;;;;19.20;76.08;102041.22;3593597;40;20236;-81
2021/07/09 00:04:30;;;;;;;7.60;5.83;;;;;;;19.17;76.49;102033.41;3593369;40;20483;-79
2021/07/09 00:06:55;;;;;;;8.67;7.03;;;;;;;19.15;76.43;102027.31;3593398;40;20548;-80
2021/07/09 00:09:21;;;;;;;7.83;5.97;;;;;;;19.14;76.12;102028.19;3592870;40;20240;-79
2021/07/09 00:11:49;;;;;;;6.63;5.87;;;;;;;19.15;75.72;102040.31;3583010;40;20701;-79
2021/07/09 00:14:17;;;;;;;7.70;6.83;;;;;;;19.14;75.46;102041.19;3583606;40;20241;-85
2021/07/09 00:16:47;;;;;;;7.10;6.47;;;;;;;19.14;75.79;102048.97;3592527;40;20235;-81
2021/07/09 00:19:13;;;;;;;6.20;5.60;;;;;;;19.16;75.03;102044.66;3582870;40;20272;-81
2021/07/09 00:21:39;;;;;;;5.53;5.13;;;;;;;19.18;75.33;102037.72;3592361;40;20249;-81
2021/07/09 00:24:05;;;;;;;8.57;6.33;;;;;;;19.16;75.13;102040.31;3593041;40;20611;-80
2021/07/09 00:26:31;;;;;;;7.53;6.30;;;;;;;19.14;75.43;102033.38;3592897;40;20242;-81
2021/07/09 00:29:00;;;;;;;7.13;6.50;;;;;;;19.10;75.94;102045.50;3592879;40;20279;-80
2021/07/09 00:31:29;;;;;;;6.60;6.00;;;;;;;19.10;75.96;102044.63;3592894;40;20631;-80
2021/07/09 00:33:55;;;;;;;7.13;6.40;;;;;;;19.10;75.87;102048.09;3593392;40;20221;-81
2021/07/09 00:36:20;;;;;;;6.60;6.00;;;;;;;19.05;76.01;102052.41;3583617;40;20681;-81
2021/07/09 00:38:45;;;;;;;6.33;5.83;;;;;;;19.02;75.88;102047.19;3592305;40;20241;-81
2021/07/09 00:41:11;;;;;;;6.20;4.53;;;;;;;19.01;75.47;102042.88;3592127;40;20291;-81
2021/07/09 00:43:37;;;;;;;5.00;4.53;;;;;;;19.02;74.72;102059.31;3583602;40;20230;-80
2021/07/09 00:46:03;;;;;;;8.80;6.67;;;;;;;18.99;75.51;102064.50;3594276;40;20611;-80
2021/07/09 00:48:28;;;;;;;5.73;5.23;;;;;;;18.99;75.39;102060.19;3584652;40;20225;-80
2021/07/09 00:50:56;;;;;;;5.07;4.47;;;;;;;18.99;75.60;102062.78;3583888;40;20642;-81
2021/07/09 00:53:21;;;;;;;6.33;5.20;;;;;;;18.95;75.47;102058.44;3584522;40;20221;-80
2021/07/09 00:55:47;;;;;;;5.67;4.63;;;;;;;18.95;75.53;102060.13;3593726;40;20221;-80
2021/07/09 00:58:12;;;;;;;6.13;4.93;;;;;;;18.94;75.44;102061.00;3593386;40;20245;-79
2021/07/09 01:00:37;;;;;;;6.10;5.23;;;;;;;18.89;75.69;102050.56;3593474;40;20217;-79
2021/07/09 01:03:03;;;;;;;8.23;5.67;;;;;;;18.92;75.72;102048.00;3584245;40;20233;-80
2021/07/09 01:05:28;;;;;;;8.27;6.67;;;;;;;18.84;75.94;102041.91;3593862;40;20267;-79
2021/07/09 01:07:53;;;;;;;6.87;6.17;;;;;;;18.81;75.46;102034.13;3594288;40;20225;-80
2021/07/09 01:10:19;;;;;;;7.87;6.07;;;;;;;18.81;75.65;102025.47;3584754;40;20222;-79
2021/07/09 01:12:46;;;;;;;9.37;7.07;;;;;;;18.69;76.32;102025.38;3584236;40;20245;-81
2021/07/09 01:15:15;;;;;;;5.83;4.90;;;;;;;18.69;75.89;102027.97;3593702;40;20217;-80
2021/07/09 01:17:40;;;;;;;7.30;5.27;;;;;;;18.69;76.06;102038.34;3584202;40;20604;-80
2021/07/09 01:20:10;;;;;;;12.33;6.63;;;;;;;18.65;75.95;102050.47;3593743;40;20220;-80
2021/07/09 01:22:37;;;;;;;6.30;5.70;;;;;;;18.65;75.60;102050.47;3593881;40;20237;-79
2021/07/09 01:25:16;;;;;;;6.70;5.57;;;;;;;18.61;75.61;102043.50;3593519;40;20241;-80
2021/07/09 01:27:44;;;;;;;5.70;5.13;;;;;;;18.60;75.84;102043.53;3593626;40;20253;-80
2021/07/09 01:30:14;;;;;;;5.50;4.40;;;;;;;18.61;75.18;102046.09;3593334;40;20221;-80
2021/07/09 01:32:40;;;;;;;11.43;5.67;;;;;;;18.59;74.91;102044.34;3594271;40;20244;-80
2021/07/09 01:35:06;;;;;;;9.43;5.70;;;;;;;18.59;75.08;102037.47;3593656;40;20236;-80
2021/07/09 01:37:31;;;;;;;6.77;5.10;;;;;;;18.58;75.44;102027.06;3583678;40;20477;-80
2021/07/09 01:39:57;;;;;;;5.67;4.87;;;;;;;18.57;74.91;102036.56;3592862;40;20233;-80
2021/07/09 01:42:22;;;;;;;8.63;5.43;;;;;;;18.56;74.83;102041.75;3583752;40;20264;-79
2021/07/09 01:44:48;;;;;;;7.07;4.93;;;;;;;18.54;75.15;102046.94;3593469;40;20232;-80
2021/07/09 01:47:13;;;;;;;6.07;3.50;;;;;;;18.53;74.81;102047.81;3593471;40;20217;-80
2021/07/09 01:49:56;;;;;;;8.50;5.10;;;;;;;18.51;74.88;102048.66;3593528;40;20225;-81
2021/07/09 01:52:22;;;;;;;5.60;4.97;;;;;;;18.48;74.83;102052.09;3583939;40;20281;-81
2021/07/09 01:54:48;;;;;;;6.23;4.03;;;;;;;18.47;75.01;102041.72;3583706;40;20240;-80
2021/07/09 01:57:13;;;;;;;6.87;4.37;;;;;;;18.42;74.64;102046.84;3593531;40;20483;-81
2021/07/09 01:59:39;;;;;;;4.70;4.07;;;;;;;18.40;74.78;102043.38;3592791;40;20537;-81
2021/07/09 02:02:06;;;;;;;6.50;4.33;;;;;;;18.38;75.27;102052.88;3592473;40;20249;-80
2021/07/09 02:04:31;;;;;;;8.13;5.50;;;;;;;18.34;74.88;102051.09;3593113;40;20240;-81
2021/07/09 02:06:56;;;;;;;5.33;3.90;;;;;;;18.36;74.45;102049.41;3593244;40;20233;-79
2021/07/09 02:09:22;;;;;;;4.10;3.70;;;;;;;18.35;74.70;102052.88;3584557;40;20314;-81
2021/07/09 02:11:47;;;;;;;8.30;5.13;;;;;;;18.33;74.59;102058.91;3592291;40;20241;-79
2021/07/09 02:14:12;;;;;;;6.73;5.07;;;;;;;18.31;74.54;102056.25;3592270;40;20514;-81
2021/07/09 02:16:40;;;;;;;4.80;4.40;;;;;;;18.31;74.51;102064.03;3593445;40;20225;-81
2021/07/09 02:19:05;;;;;;;3.53;2.87;;;;;;;18.33;74.73;102062.34;3593397;40;20217;-81
2021/07/09 02:21:31;;;;;;;4.43;4.03;;;;;;;18.33;74.30;102067.53;3593874;40;20298;-82
2021/07/09 02:23:56;;;;;;;6.03;4.70;;;;;;;18.33;74.60;102069.28;3593814;40;20225;-80
2021/07/09 02:26:21;;;;;;;9.67;6.20;;;;;;;18.28;74.79;102065.75;3584177;40;20241;-79
2021/07/09 02:28:46;;;;;;;5.80;4.67;;;;;;;18.30;74.28;102059.72;3593030;40;20228;-79
2021/07/09 02:31:13;;;;;;;5.63;5.00;;;;;;;18.29;74.47;102060.56;3593420;40;20847;-80
2021/07/09 02:33:38;;;;;;;5.23;3.80;;;;;;;18.32;74.44;102054.50;3584082;40;20222;-80
2021/07/09 02:36:03;;;;;;;9.63;4.77;;;;;;;18.31;74.44;102055.38;3593602;40;20247;-80
2021/07/09 02:38:29;;;;;;;7.73;5.63;;;;;;;18.27;75.14;102053.63;3593169;40;20280;-80
2021/07/09 02:40:54;;;;;;;5.97;5.37;;;;;;;18.24;74.46;102069.16;3592143;40;20542;-81
2021/07/09 02:43:19;;;;;;;6.30;5.80;;;;;;;18.22;75.00;102058.78;3581679;40;20227;-80
2021/07/09 02:45:45;;;;;;;5.10;4.60;;;;;;;18.23;75.10;102057.91;3582818;40;20214;-80
2021/07/09 02:48:10;;;;;;;5.77;5.03;;;;;;;18.25;74.74;102056.22;3591953;40;20619;-80
2021/07/09 02:50:35;;;;;;;9.73;5.97;;;;;;;18.23;74.82;102057.06;3592459;40;20241;-80
2021/07/09 02:53:00;;;;;;;6.60;4.57;;;;;;;18.24;74.79;102051.03;3592200;40;20500;-80
2021/07/09 02:55:26;;;;;;;5.37;4.80;;;;;;;18.23;75.06;102039.75;3592320;40;20237;-80
2021/07/09 02:57:51;;;;;;;7.93;5.87;;;;;;;18.20;75.27;102034.53;3592619;40;20221;-79
2021/07/09 03:00:17;;;;;;;9.73;4.63;;;;;;;18.20;74.95;102018.13;3583252;40;20221;-79
2021/07/09 03:02:44;;;;;;;6.10;5.33;;;;;;;18.18;75.02;102022.44;3592946;40;20249;-80
2021/07/09 03:05:10;;;;;;;10.45;4.85;;;;;;;18.16;75.32;102025.03;3592395;40;20225;-78
2021/07/09 03:07:37;;;;;;;7.67;5.10;;;;;;;18.17;75.12;102025.88;3592044;40;20225;-80
2021/07/09 03:10:04;;;;;;;6.83;4.67;;;;;;;18.16;75.54;102029.34;3592436;40;20737;-78
2021/07/09 03:12:29;;;;;;;5.00;4.50;;;;;;;18.17;74.91;102020.69;3591456;40;20244;-80
2021/07/09 03:14:55;;;;;;;4.70;4.23;;;;;;;18.16;75.10;102022.44;3591979;40;20221;-79
2021/07/09 03:17:20;;;;;;;7.70;4.70;;;;;;;18.15;74.69;102027.59;3583386;40;20314;-79
2021/07/09 03:19:45;;;;;;;4.20;3.90;;;;;;;18.17;75.13;102028.47;3592424;40;20318;-79
2021/07/09 03:22:10;;;;;;;4.50;3.83;;;;;;;18.18;75.13;102025.00;3593712;40;20249;-81
2021/07/09 03:24:37;;;;;;;4.83;4.27;;;;;;;18.17;74.82;102024.16;3593568;40;20221;-80
2021/07/09 03:27:03;;;;;;;5.33;3.73;;;;;;;18.19;75.06;102016.41;3593377;40;20900;-80
2021/07/09 03:29:28;;;;;;;4.57;3.93;;;;;;;18.18;74.72;102015.53;3593259;40;20232;-80
2021/07/09 03:31:53;;;;;;;6.67;4.43;;;;;;;18.16;75.00;102009.47;3593229;40;20256;-79
2021/07/09 03:34:19;;;;;;;7.33;4.03;;;;;;;18.19;74.49;102008.63;3593637;40;20275;-80
2021/07/09 03:36:44;;;;;;;4.60;3.47;;;;;;;18.18;74.66;102001.69;3593676;40;20257;-80
2021/07/09 03:39:13;;;;;;;6.27;4.03;;;;;;;18.19;74.63;102006.88;3590609;40;20233;-81
2021/07/09 03:41:40;;;;;;;4.43;4.03;;;;;;;18.18;74.74;102004.28;3591181;40;20280;-79
2021/07/09 03:44:07;;;;;;;7.03;4.77;;;;;;;18.18;74.75;102001.69;3591810;40;20225;-78
2021/07/09 03:46:33;;;;;;;5.70;4.33;;;;;;;18.19;74.56;102008.63;3582585;40;20543;-79
2021/07/09 03:48:59;;;;;;;3.93;3.47;;;;;;;18.18;74.58;101994.78;3591917;40;20228;-80
2021/07/09 03:51:24;;;;;;;6.53;4.47;;;;;;;18.21;74.40;101996.53;3591432;40;20253;-79
2021/07/09 03:53:54;;;;;;;5.27;4.30;;;;;;;18.24;74.10;101991.38;3591710;40;20604;-80
2021/07/09 03:56:20;;;;;;;3.87;3.37;;;;;;;18.24;74.14;101992.22;3592219;40;20227;-80
2021/07/09 03:58:45;;;;;;;3.93;3.57;;;;;;;18.26;73.96;101993.13;3591821;40;20213;-80
2021/07/09 04:01:11;;;;;;;3.27;2.97;;;;;;;18.27;74.02;101994.84;3582446;40;20314;-79
2021/07/09 04:03:36;;;;;;;2.97;2.77;;;;;;;18.28;73.94;101993.97;3592225;40;20210;-80
2021/07/09 04:06:01;;;;;;;4.03;2.90;;;;;;;18.29;73.57;101984.50;3591852;40;20229;-80
2021/07/09 04:08:26;;;;;;;3.37;3.07;;;;;;;18.30;73.68;101975.84;3592052;40;20232;-80
2021/07/09 04:10:52;;;;;;;4.67;4.20;;;;;;;18.30;73.85;101968.94;3592054;40;20245;-78
2021/07/09 04:13:17;;;;;;;3.50;3.20;;;;;;;18.34;73.85;101964.66;3591850;40;20268;-79
2021/07/09 04:15:42;;;;;;;4.13;3.73;;;;;;;18.32;74.00;101956.84;3591976;40;20314;-78
2021/07/09 04:18:08;;;;;;;6.97;3.70;;;;;;;18.33;74.07;101958.59;3592001;40;20213;-79
2021/07/09 04:20:33;;;;;;;4.97;4.40;;;;;;;18.33;73.65;101958.59;3593697;40;20232;-79
2021/07/09 04:22:58;;;;;;;4.77;4.00;;;;;;;18.35;73.81;101956.00;3583861;40;20529;-80
2021/07/09 04:25:24;;;;;;;7.93;4.50;;;;;;;18.37;73.58;101954.31;3593777;40;20232;-80
2021/07/09 04:27:49;;;;;;;4.97;3.53;;;;;;;18.40;73.81;101954.31;3593821;40;20237;-79
2021/07/09 04:30:15;;;;;;;8.23;4.40;;;;;;;18.42;74.00;101955.22;3593277;40;20221;-80
2021/07/09 04:32:41;;;;;;;4.20;3.30;;;;;;;18.45;73.36;101960.38;3594021;40;20492;-80
2021/07/09 04:35:07;;;;;;;5.67;3.93;;;;;;;18.45;73.76;101952.59;3593630;40;20225;-80
2021/07/09 04:37:33;;;;;;;4.43;3.90;;;;;;;18.49;73.56;101952.66;3593522;40;20233;-81
2021/07/09 04:39:59;;;;;;;5.37;3.80;;;;;;;18.56;73.14;101950.94;3593401;40;20512;-80
2021/07/09 04:42:24;;;;;;;6.53;4.03;;;;;;;18.59;72.91;101945.75;3592981;40;20260;-79
2021/07/09 04:44:49;;;;;;;4.70;3.80;;;;;;;18.62;73.07;101950.97;3593354;40;20611;-77
2021/07/09 04:47:15;;;;;;;4.93;4.47;;;;;;;18.65;72.87;101951.00;3584140;40;20234;-79
2021/07/09 04:49:40;;;;;;;9.47;4.50;;;;;;;18.68;72.81;101949.28;3593101;40;20233;-80
2021/07/09 04:52:06;;;;;;;6.57;4.27;;;;;;;18.71;72.84;101958.78;3593076;40;20245;-81
2021/07/09 04:54:31;;;;;;;9.57;5.50;;;;;;;18.66;73.53;101961.34;3593027;40;20235;-81
2021/07/09 04:56:57;;;;;;;6.27;4.33;;;;;;;18.70;73.46;101964.84;3593054;40;20237;-79
2021/07/09 04:59:22;;;;;;;3.63;3.33;;;;;;;18.69;73.53;101966.56;3592551;40;20230;-80
2021/07/09 05:01:47;;;;;;;6.90;3.83;;;;;;;18.73;73.19;101970.91;3572809;40;20245;-80
2021/07/09 05:04:13;;;;;;;6.00;3.80;;;;;;;18.77;73.25;101966.59;3574289;40;20241;-78
2021/07/09 05:06:38;;;;;;;4.03;3.33;;;;;;;18.81;73.46;101974.41;3588178;40;20220;-81
2021/07/09 05:09:05;;;;;;;5.30;4.90;;;;;;;18.77;74.17;101967.47;3592906;40;20229;-80
2021/07/09 05:11:32;;;;;;;7.00;4.33;;;;;;;18.83;74.38;101972.69;3590643;40;20249;-80
2021/07/09 05:14:01;;;;;;;9.73;5.33;;;;;;;18.91;74.17;101964.91;3578432;40;20239;-81
2021/07/09 05:16:26;;;;;;;4.30;3.33;;;;;;;18.97;74.35;101967.56;3593092;40;20230;-80
2021/07/09 05:18:53;;;;;;;7.00;3.63;;;;;;;19.04;73.84;101966.69;3593122;40;20225;-80
2021/07/09 05:21:18;;;;;;;7.17;3.73;;;;;;;19.10;73.26;101967.59;3592993;40;20241;-79
2021/07/09 05:23:44;;;;;;;6.47;4.00;;;;;;;19.22;73.37;101964.16;3593436;40;20224;-79
2021/07/09 05:26:09;;;;;;;4.53;3.83;;;;;;;19.24;73.22;101954.66;3593255;40;20623;-80
2021/07/09 05:28:34;;;;;;;5.43;3.90;;;;;;;19.30;72.62;101954.69;3592711;40;20221;-81
2021/07/09 05:30:59;;;;;;;3.97;2.90;;;;;;;19.40;72.37;101944.28;3592375;40;20244;-80
2021/07/09 05:33:25;;;;;;;3.47;3.10;;;;;;;19.46;72.12;101940.84;3583747;40;20611;-80
2021/07/09 05:35:50;;;;;;;3.33;3.03;;;;;;;19.57;71.41;101929.56;3593341;40;20229;-80
2021/07/09 05:38:15;;;;;;;4.30;2.80;;;;;;;19.66;70.87;101936.53;3594666;40;20294;-80
2021/07/09 05:40:40;;;;;;;3.83;3.17;;;;;;;19.76;70.46;101941.69;3592865;40;20225;-82
2021/07/09 05:43:06;;;;;;;3.83;2.40;;;;;;;19.83;70.47;101934.75;3583647;40;20225;-80
2021/07/09 05:45:31;;;;;;;7.97;2.97;;;;;;;19.89;70.17;101938.22;3593064;40;20252;-81
2021/07/09 05:47:57;;;;;;;5.33;2.67;;;;;;;19.98;69.57;101933.03;3593684;40;20228;-80
2021/07/09 05:50:22;;;;;;;10.13;3.60;;;;;;;19.98;69.06;101933.03;3594034;40;20227;-79
2021/07/09 05:52:48;;;;;;;7.03;3.37;;;;;;;20.02;68.59;101949.47;3583964;40;20233;-80
2021/07/09 05:55:14;;;;;;;5.30;2.73;;;;;;;20.04;68.80;101958.16;3585024;40;20229;-81
2021/07/09 05:57:39;;;;;;;5.13;3.30;;;;;;;20.03;68.74;101952.09;3593425;40;20627;-79
2021/07/09 06:00:06;;;;;;;3.07;2.67;;;;;;;20.09;68.35;101951.25;3592275;40;20233;-79
2021/07/09 06:02:32;;;;;;;4.93;3.00;;;;;;;20.14;69.01;101946.91;3583843;39;20245;-79
2021/07/09 06:04:57;;;;;;;5.40;3.07;;;;;;;20.23;68.04;101944.28;3593391;40;20248;-79
2021/07/09 06:07:22;;;;;;;5.33;2.97;;;;;;;20.27;67.78;101943.41;3592498;40;20286;-79
2021/07/09 06:09:48;;;;;;;5.63;2.70;;;;;;;20.29;67.98;101936.44;3593251;40;20217;-78
2021/07/09 06:12:13;;;;;;;3.97;3.00;;;;;;;20.36;67.94;101938.19;3592831;40;20828;-79
2021/07/09 06:14:38;;;;;;;5.97;2.77;;;;;;;20.37;67.37;101927.78;3593463;40;20233;-79
2021/07/09 06:17:03;;;;;;;6.60;3.10;;;;;;;20.41;66.97;101937.28;3593599;40;20287;-80
2021/07/09 06:19:29;;;;;;;3.13;2.30;;;;;;;20.51;67.60;101943.34;3593329;40;20507;-80
2021/07/09 06:21:54;;;;;;;4.50;2.57;;;;;;;20.58;67.21;101927.69;3593220;40;20330;-80
2021/07/09 06:24:19;;;;;;;6.17;2.67;;;;;;;20.68;66.05;101931.13;3593258;40;20279;-80
2021/07/09 06:26:44;;;;;;;4.47;2.50;;;;;;;20.79;65.56;101929.31;3592885;40;20278;-81
2021/07/09 06:29:10;;;;;;;6.87;2.57;;;;;;;20.88;66.19;101934.50;3592658;40;20217;-77
2021/07/09 06:31:36;;;;;;;6.50;2.90;;;;;;;20.98;64.65;101934.47;3591747;40;20249;-78
2021/07/09 06:34:01;;;;;;;3.47;2.63;;;;;;;21.06;64.23;101947.44;3592227;40;20220;-78
2021/07/09 06:36:27;;;;;;;4.07;2.27;;;;;;;21.08;64.16;101949.16;3593130;40;20241;-80
2021/07/09 06:38:52;;;;;;;5.87;2.40;;;;;;;21.12;62.66;101950.00;3593082;40;20415;-80
2021/07/09 06:41:17;;;;;;;3.20;2.00;;;;;;;21.17;64.16;101948.25;3592126;40;20232;-79
2021/07/09 06:43:43;;;;;;;5.10;2.40;;;;;;;21.32;63.28;101941.19;3592972;40;20221;-80
2021/07/09 06:46:10;;;;;;;5.10;2.30;;;;;;;21.40;63.03;101944.63;3593350;40;20213;-79
2021/07/09 06:48:35;;;;;;;3.85;2.30;;;;;;;21.49;61.88;101938.47;3593014;40;20263;-78
2021/07/09 06:51:01;;;;;;;3.17;2.43;;;;;;;21.61;62.40;101938.38;3592556;40;20570;-78
2021/07/09 06:53:27;;;;;;;3.90;2.40;;;;;;;21.76;60.80;101935.66;3583896;40;20285;-80
2021/07/09 06:55:52;;;;;;;2.90;2.22;;;;;;;21.89;62.04;101930.31;3594115;40;20232;-80
2021/07/09 06:58:17;;;;;;;3.30;2.10;;;;;;;22.06;62.12;101928.41;3593624;40;20294;-80
2021/07/09 07:00:43;;;;;;;4.37;2.53;;;;;;;22.21;59.82;101916.97;3592656;40;20243;-80
2021/07/09 07:03:08;;;;;;;3.10;2.30;;;;;;;22.26;60.15;101921.22;3583447;40;20236;-81
2021/07/09 07:05:33;;;;;;;4.50;2.40;;;;;;;22.28;59.25;101932.53;3594124;40;20237;-80
2021/07/09 07:08:16;;;;;;;2.50;2.30;;;;;;;22.25;60.32;101942.16;3593510;40;20229;-81
2021/07/09 07:10:42;;;;;;;1.90;1.67;;;;;;;22.25;60.27;101940.38;3582566;40;20234;-81
2021/07/09 07:13:07;;;;;;;4.10;2.00;;;;;;;22.24;59.83;101928.22;3583662;40;20516;-80
2021/07/09 07:15:32;;;;;;;2.37;1.60;;;;;;;22.22;60.17;101926.50;3592357;40;20225;-81
2021/07/09 07:17:58;;;;;;;5.50;2.13;;;;;;;22.23;60.01;101934.31;3584209;40;20255;-79
2021/07/09 07:20:23;;;;;;;5.53;2.00;;;;;;;22.23;60.04;101946.50;3583103;40;20592;-81
2021/07/09 07:22:48;;;;;;;3.40;2.00;;;;;;;22.28;59.90;101955.16;3593008;40;20245;-78
2021/07/09 07:25:13;;;;;;;2.20;1.50;;;;;;;22.28;60.22;101948.19;3592454;40;20225;-81
2021/07/09 07:27:39;;;;;;;3.85;2.17;;;;;;;22.33;58.98;101955.13;3592444;40;20225;-81
2021/07/09 07:30:07;;;;;;;3.80;2.17;;;;;;;22.28;59.40;101948.19;3593458;40;20334;-80
2021/07/09 07:32:33;;;;;;;2.93;2.10;;;;;;;22.30;60.34;101938.59;3593354;40;20252;-80
2021/07/09 07:34:58;;;;;;;4.40;2.00;;;;;;;22.32;60.58;101940.34;3593456;40;20217;-80
2021/07/09 07:37:23;;;;;;;4.07;2.50;;;;;;;22.32;60.58;101941.19;3573845;40;20233;-80
2021/07/09 07:39:49;;;;;;;2.08;1.88;;;;;;;22.34;59.87;101947.28;3586236;40;20229;-79
2021/07/09 07:42:14;;;;;;;4.93;2.53;;;;;;;22.35;59.38;101941.16;3594258;40;20245;-79
2021/07/09 07:44:40;;;;;;;2.53;1.95;;;;;;;22.35;59.37;101938.56;3593505;40;20225;-80
2021/07/09 07:47:05;;;;;;;4.13;2.42;;;;;;;22.40;60.35;101939.38;3592874;40;20225;-80
2021/07/09 07:49:31;;;;;;;4.20;2.55;;;;;;;22.40;60.81;101939.38;3583380;40;20590;-79
2021/07/09 07:51:56;;;;;;;4.35;2.80;;;;;;;22.43;60.09;101942.78;3593528;40;20631;-80
2021/07/09 07:54:21;;;;;;;5.50;2.83;;;;;;;22.33;60.12;101948.13;3592135;40;20228;-79
2021/07/09 07:56:46;;;;;;;5.57;2.47;;;;;;;22.29;61.10;101949.91;3582222;40;20235;-80
2021/07/09 07:59:12;;;;;;;4.38;2.58;;;;;;;22.30;61.21;101948.19;3585357;40;20225;-79
2021/07/09 08:01:40;;;;;;;3.80;2.55;;;;;;;22.43;60.85;101945.41;3584346;40;20631;-83
2021/07/09 08:04:06;;;;;;;5.28;2.90;;;;;;;22.53;60.28;101953.16;3584220;40;20237;-80
2021/07/09 08:06:31;;;;;;;2.42;2.00;;;;;;;22.65;60.19;101939.97;3593294;40;20227;-80
2021/07/09 08:08:57;;;;;;;3.42;3.05;;;;;;;22.85;60.55;101940.56;3583426;40;20837;-80
2021/07/09 08:11:23;;;;;;;3.58;2.90;;;;;;;23.00;58.99;101935.13;3591959;40;20252;-80
2021/07/09 08:13:48;;;;;;;8.13;3.72;;;;;;;23.15;58.51;101938.41;3593514;40;20484;-80
2021/07/09 08:16:14;;;;;;;3.83;3.20;;;;;;;23.14;57.89;101941.03;3593384;40;20217;-80
2021/07/09 08:18:39;;;;;;;3.00;2.70;;;;;;;23.28;59.01;101942.59;3583484;40;20225;-80
2021/07/09 08:21:04;;;;;;;4.05;2.75;;;;;;;23.46;58.58;101933.59;3579882;40;20592;-80
2021/07/09 08:23:31;;;;;;;6.10;3.50;;;;;;;23.55;57.08;101936.06;3583373;40;20248;-79
2021/07/09 08:25:57;;;;;;;6.90;3.60;;;;;;;23.61;57.87;101938.59;3583113;40;20251;-80
2021/07/09 08:28:24;;;;;;;3.50;2.78;;;;;;;23.71;56.76;101933.16;3584182;40;20226;-80
2021/07/09 08:30:49;;;;;;;3.60;2.78;;;;;;;23.71;57.62;101940.16;3593076;40;20303;-81
2021/07/09 08:33:14;;;;;;;2.67;2.47;;;;;;;23.67;56.72;101944.56;3592330;40;20241;-81
2021/07/09 08:35:40;;;;;;;8.07;3.42;;;;;;;23.62;56.95;101940.31;3592526;40;20252;-80
2021/07/09 08:38:06;;;;;;;4.22;3.10;;;;;;;23.58;58.52;101943.88;3592625;40;20319;-80
2021/07/09 08:40:31;;;;;;;9.80;3.10;;;;;;;23.67;58.26;101941.09;3590973;40;20233;-81
2021/07/09 08:42:56;;;;;;;4.75;2.72;;;;;;;23.71;58.42;101946.25;3593325;40;20229;-80
2021/07/09 08:45:22;;;;;;;5.63;3.05;;;;;;;23.74;57.36;101943.59;3592640;40;20249;-80
2021/07/09 08:47:48;;;;;;;3.42;2.97;;;;;;;23.65;56.68;101945.47;3593325;40;20233;-80
2021/07/09 08:50:14;;;;;;;5.18;3.10;;;;;;;23.53;56.60;101941.31;3582972;40;20623;-79
2021/07/09 08:52:40;;;;;;;5.88;3.25;;;;;;;23.49;57.44;101933.56;3592683;40;20233;-80
2021/07/09 08:55:11;;;;;;;3.05;2.50;;;;;;;23.57;58.15;101935.16;3592539;40;20639;-80
2021/07/09 08:57:38;;;;;;;4.32;2.88;;;;;;;23.62;57.55;101927.25;3583505;40;20288;-77
2021/07/09 09:00:06;;;;;;;7.35;3.60;;;;;;;23.84;56.10;101928.59;3592514;40;20261;-80
2021/07/09 09:02:31;;;;;;;5.15;2.67;;;;;;;23.73;57.37;101928.78;3583294;40;20754;-80
2021/07/09 09:04:57;;;;;;;5.38;3.42;;;;;;;23.75;56.44;101927.00;3584420;40;20229;-80
2021/07/09 09:07:28;;;;;;;4.28;3.25;;;;;;;23.78;57.56;101932.19;3594614;40;20240;-80
2021/07/09 09:09:53;;;;;;;3.42;2.65;;;;;;;23.61;56.92;101933.38;3594032;40;20302;-81
2021/07/09 09:12:19;;;;;;;4.30;2.97;;;;;;;23.60;58.08;101926.38;3594074;40;20257;-80
2021/07/09 09:14:46;;;;;;;4.05;2.72;;;;;;;23.43;58.45;101925.81;3595113;40;20322;-80
2021/07/09 09:17:36;;;;;;;4.75;3.22;;;;;;;23.35;59.14;101925.06;3594323;40;20625;-81
2021/07/09 09:20:11;;;;;;;4.55;3.50;;;;;;;23.30;59.95;101929.50;3594227;40;20237;-81
2021/07/09 09:22:56;;;;;;;3.40;2.92;;;;;;;23.32;59.08;101920.75;3594383;40;20239;-79
2021/07/09 09:25:28;;;;;;;3.03;2.63;;;;;;;23.22;59.63;101915.69;3584980;40;20636;-80
2021/07/09 09:28:01;;;;;;;7.00;3.40;;;;;;;23.19;58.99;101916.59;3594083;40;20291;-80
2021/07/09 09:30:28;;;;;;;3.50;3.20;;;;;;;23.26;58.80;101912.13;3593911;40;20240;-80
2021/07/09 09:32:53;;;;;;;5.90;3.60;;;;;;;23.12;59.60;101919.28;3585157;40;20674;-80
2021/07/09 09:35:37;;;;;;;4.03;2.83;;;;;;;23.00;59.41;101915.09;3584933;40;20229;-80
2021/07/09 09:38:04;;;;;;;3.67;2.80;;;;;;;22.95;60.05;101918.66;3593320;40;20239;-80
2021/07/09 09:40:32;;;;;;;3.13;2.83;;;;;;;22.99;60.33;101917.72;3593767;40;20241;-80
2021/07/09 09:43:04;;;;;;;3.95;2.80;;;;;;;23.05;59.91;101910.66;3592891;40;20532;-81
2021/07/09 09:45:29;;;;;;;3.13;2.25;;;;;;;23.05;59.91;101915.91;3594108;40;20272;-79
2021/07/09 09:48:03;;;;;;;4.38;2.90;;;;;;;23.15;59.62;101925.31;3593943;40;20297;-80
2021/07/09 09:50:28;;;;;;;3.65;2.92;;;;;;;23.12;59.67;101922.78;3591510;40;20229;-79
2021/07/09 09:52:55;;;;;;;4.00;2.90;;;;;;;23.14;59.43;101926.22;3583331;40;20291;-79
2021/07/09 09:55:31;;;;;;;5.68;3.20;;;;;;;23.10;59.13;101924.53;3593062;40;20511;-81
2021/07/09 09:58:19;;;;;;;2.97;2.75;;;;;;;23.00;60.35;101924.69;3593468;40;20287;-80
2021/07/09 10:00:49;;;;;;;3.60;3.30;;;;;;;22.94;60.36;101922.16;3580678;40;20253;-81
2021/07/09 10:03:15;;;;;;;3.35;3.00;;;;;;;22.90;60.57;101915.25;3594298;40;20225;-80
2021/07/09 10:05:45;;;;;;;4.43;3.17;;;;;;;22.93;60.64;101918.66;3594245;40;20224;-81
2021/07/09 10:08:13;;;;;;;3.83;2.53;;;;;;;22.90;60.92;101918.72;3584915;40;20229;-81
2021/07/09 10:10:40;;;;;;;3.38;3.08;;;;;;;22.94;60.74;101914.31;3574640;40;20249;-81
2021/07/09 10:13:07;;;;;;;3.38;2.72;;;;;;;22.89;61.14;101911.78;3583082;40;20233;-83
2021/07/09 10:15:33;;;;;;;3.78;3.38;;;;;;;22.88;60.55;101912.66;3605288;39;20256;-78
2021/07/09 10:17:59;;;;;;;6.40;3.75;;;;;;;22.85;60.89;101911.84;3594568;40;20479;-80
2021/07/09 10:20:25;;;;;;;3.30;2.85;;;;;;;22.81;61.63;101910.16;3594614;40;20270;-79
2021/07/09 10:22:51;;;;;;;3.90;3.10;;;;;;;22.85;60.62;101907.47;3594683;40;20240;-80
2021/07/09 10:25:19;;;;;;;5.45;3.00;;;;;;;22.83;60.62;101916.22;3598274;40;20645;-80
2021/07/09 10:27:52;;;;;;;2.60;2.40;;;;;;;22.72;62.17;101912.88;3605251;40;20217;-82
2021/07/09 10:30:18;;;;;;;4.00;3.08;;;;;;;22.80;61.32;101903.19;3595515;40;20654;-81
2021/07/09 10:32:48;;;;;;;5.63;3.58;;;;;;;22.63;63.56;101902.53;3595141;40;20257;-81
2021/07/09 10:35:45;;;;;;;5.15;3.33;;;;;;;22.55;63.48;101902.66;3605962;40;20276;-81
2021/07/09 10:38:14;;;;;;;4.05;2.72;;;;;;;22.46;64.40;101897.53;3595815;40;20611;-81
2021/07/09 10:40:43;;;;;;;4.72;2.67;;;;;;;22.42;64.48;101901.03;3594462;40;20270;-79
2021/07/09 10:43:10;;;;;;;4.13;3.30;;;;;;;22.35;63.60;101902.00;3604073;40;20226;-81
2021/07/09 10:45:40;;;;;;;5.10;3.00;;;;;;;22.36;64.26;101908.94;3604192;40;20213;-79
2021/07/09 10:48:10;;;;;;;6.22;4.28;;;;;;;22.33;65.57;101900.28;3604249;40;20221;-80
2021/07/09 10:50:39;;;;;;;4.50;3.60;;;;;;;22.32;65.47;101898.56;3603841;40;20217;-80
2021/07/09 10:53:10;;;;;;;3.30;3.00;;;;;;;22.35;65.32;101900.22;3599947;40;20608;-80
2021/07/09 10:55:40;;;;;;;3.47;3.17;;;;;;;22.38;65.45;101889.78;3593428;40;20265;-80
2021/07/09 10:58:09;;;;;;;3.55;3.08;;;;;;;22.43;65.10;101893.19;3593864;40;20221;-80
2021/07/09 11:00:44;;;;;;;5.50;3.83;;;;;;;22.41;65.04;101891.47;3593165;40;20225;-80
2021/07/09 11:03:11;;;;;;;3.47;3.08;;;;;;;22.47;65.21;101903.63;3593350;40;20227;-79
2021/07/09 11:05:42;;;;;;;4.25;3.85;;;;;;;22.47;65.87;101901.03;3593748;40;20229;-79
2021/07/09 11:08:33;;;;;;;4.13;3.60;;;;;;;22.42;65.97;101902.78;3594077;40;20288;-81
2021/07/09 11:11:12;;;;;;;4.18;3.78;;;;;;;22.27;67.11;101909.06;3593915;40;20252;-80
2021/07/09 11:13:40;;;;;;;4.43;3.22;;;;;;;22.25;66.27;101913.44;3594209;40;20942;-80
2021/07/09 11:16:24;;;;;;;4.13;3.75;;;;;;;22.18;67.08;101907.41;3594064;40;20233;-80
2021/07/09 11:19:04;;;;;;;2.67;2.42;;;;;;;22.16;67.13;101903.09;3593774;40;20225;-78
2021/07/09 11:21:30;;;;;;;4.93;3.17;;;;;;;22.15;68.31;101906.56;3593852;40;20240;-79
2021/07/09 11:24:01;;;;;;;3.15;2.88;;;;;;;22.11;68.73;101908.34;3593701;40;20229;-80